Time,TemperatureF,DewpointF,PressureIn,WindDirection,WindDirectionDegrees,WindSpeedMPH,WindSpeedGustMPH,Humidity,HourlyPrecipIn,Conditions,Clouds,dailyrainin,SoftwareType,DateUTC
2013-02-26 00:00:00,33.6,31.5,30.24,NNW,328,2.3,2.3,92,0.00,OVC,,0.00,WeatherDisplay:10.37,2013-02-26 05:00:00,
2013-02-26 00:03:00,33.5,31.4,30.24,NNW,328,0.0,0.0,92,0.00,CLR,,0.00,WeatherDisplay:10.37,2013-02-26 05:03:00,
2013-02-26 00:08:00,33.3,31.2,30.23,NNW,328,0.0,0.0,92,0.00,CLR,,0.00,WeatherDisplay:10.37,2013-02-26 05:08:00,
2013-02-26 00:14:00,33.1,31.0,30.24,NNW,328,0.0,0.0,92,0.00,CLR,,0.00,WeatherDisplay:10.37,2013-02-26 05:14:00,
2013-02-26 00:19:00,32.9,30.8,30.24,NNW,328,0.0,0.0,92,0.00,CLR,,0.00,WeatherDisplay:10.37,2013-02-26 05:19:00,
2013-02-26 00:24:00,32.7,30.9,30.23,NNW,328,0.0,0.0,93,0.00,CLR,,0.00,WeatherDisplay:10.37,2013-02-26 05:24:00,
2013-02-26 00:29:00,32.6,30.8,30.24,NNW,328,2.3,2.3,93,0.00,CLR,,0.00,WeatherDisplay:10.37,2013-02-26 05:29:00,
2013-02-26 00:35:00,32.5,30.7,30.24,NNW,328,0.0,0.0,93,0.00,CLR,,0.00,WeatherDisplay:10.37,2013-02-26 05:35:00,
2013-02-26 00:40:00,32.5,30.7,30.24,NNW,328,0.0,0.0,93,0.00,CLR,,0.00,WeatherDisplay:10.37,2013-02-26 05:40:00,
2013-02-26 00:45:00,32.4,30.6,30.23,NNW,328,0.0,0.0,93,0.00,CLR,,0.00,WeatherDisplay:10.37,2013-02-26 05:45:00,
2013-02-26 00:50:00,32.4,30.6,30.23,NNW,328,2.3,2.3,93,0.00,CLR,,0.00,WeatherDisplay:10.37,2013-02-26 05:50:00,
2013-02-26 00:55:00,32.3,30.5,30.23,NNW,328,2.3,2.3,93,0.00,CLR,,0.00,WeatherDisplay:10.37,2013-02-26 05:55:00,
2013-02-26 01:01:00,32.1,30.3,30.23,NNW,328,1.1,0.0,93,0.00,CLR,,0.00,WeatherDisplay:10.37,2013-02-26 06:01:00,
2013-02-26 01:06:00,31.9,30.1,30.23,NNW,328,1.1,1.1,93,0.00,CLR,,0.00,WeatherDisplay:10.37,2013-02-26 06:06:00,
2013-02-26 01:11:00,31.8,30.3,30.23,NNW,328,0.0,0.0,94,0.00,CLR,,0.00,WeatherDisplay:10.37,2013-02-26 06:11:00,
2013-02-26 01:16:00,31.7,29.9,30.23,NNW,328,2.0,2.0,93,0.00,CLR,,0.00,WeatherDisplay:10.37,2013-02-26 06:16:00,
2013-02-26 01:21:00,31.6,30.1,30.22,NNW,328,4.0,4.0,94,0.00,CLR,,0.00,WeatherDisplay:10.37,2013-02-26 06:21:00,
2013-02-26 01:27:00,31.6,30.1,30.22,NNW,346,2.3,2.3,94,0.00,CLR,,0.00,WeatherDisplay:10.37,2013-02-26 06:27:00,
2013-02-26 01:32:00,31.3,29.8,30.22,NNW,346,1.1,1.1,94,0.00,CLR,,0.00,WeatherDisplay:10.37,2013-02-26 06:32:00,
2013-02-26 01:37:00,31.2,29.7,30.22,NNW,346,0.0,0.0,94,0.00,CLR,,0.00,WeatherDisplay:10.37,2013-02-26 06:37:00,
2013-02-26 01:42:00,31.2,29.7,30.22,NNW,346,1.1,1.1,94,0.00,CLR,,0.00,WeatherDisplay:10.37,2013-02-26 06:42:00,
2013-02-26 01:47:00,31.2,29.7,30.22,NNW,346,1.1,0.0,94,0.00,CLR,,0.00,WeatherDisplay:10.37,2013-02-26 06:47:00,
2013-02-26 01:53:00,31.2,29.7,30.22,NNW,346,0.0,0.0,94,0.00,CLR,,0.00,WeatherDisplay:10.37,2013-02-26 06:53:00,
2013-02-26 01:58:00,31.0,29.5,30.23,NNW,346,0.0,0.0,94,0.00,CLR,,0.00,WeatherDisplay:10.37,2013-02-26 06:58:00,
2013-02-26 02:03:00,30.8,29.3,30.23,NNW,346,2.3,2.3,94,0.00,CLR,,0.00,WeatherDisplay:10.37,2013-02-26 07:03:00,
2013-02-26 02:08:00,30.6,29.1,30.24,NNW,346,0.0,0.0,94,0.00,CLR,,0.00,WeatherDisplay:10.37,2013-02-26 07:08:00,
2013-02-26 02:13:00,30.7,29.2,30.24,NNW,346,1.0,1.0,94,0.00,CLR,,0.00,WeatherDisplay:10.37,2013-02-26 07:13:00,
2013-02-26 02:19:00,30.8,29.3,30.25,NNW,346,1.1,0.0,94,0.00,CLR,,0.00,WeatherDisplay:10.37,2013-02-26 07:19:00,
2013-02-26 02:24:00,31.0,29.5,30.25,NNW,346,0.0,0.0,94,0.00,CLR,,0.00,WeatherDisplay:10.37,2013-02-26 07:24:00,
2013-02-26 02:29:00,31.0,29.5,30.25,NNW,346,0.0,0.0,94,0.00,CLR,,0.00,WeatherDisplay:10.37,2013-02-26 07:29:00,
2013-02-26 02:34:00,31.0,29.5,30.25,NNW,346,1.1,0.0,94,0.00,CLR,,0.00,WeatherDisplay:10.37,2013-02-26 07:34:00,
2013-02-26 02:39:00,31.2,29.9,30.25,NNW,346,1.1,1.1,95,0.00,CLR,,0.00,WeatherDisplay:10.37,2013-02-26 07:39:00,
2013-02-26 02:45:00,31.4,29.9,30.26,NNW,346,1.1,1.1,94,0.00,CLR,,0.00,WeatherDisplay:10.37,2013-02-26 07:45:00,
2013-02-26 02:50:00,31.5,30.0,30.26,NNW,346,0.0,0.0,94,0.00,CLR,,0.00,WeatherDisplay:10.37,2013-02-26 07:50:00,
2013-02-26 02:55:00,31.7,30.2,30.26,NNW,346,0.0,0.0,94,0.00,CLR,,0.00,WeatherDisplay:10.37,2013-02-26 07:55:00,
2013-02-26 03:00:00,31.6,30.1,30.27,NNW,346,0.0,0.0,94,0.00,OVC,,0.00,WeatherDisplay:10.37,2013-02-26 08:00:00,
2013-02-26 03:05:00,31.5,30.0,30.26,NNW,346,0.0,0.0,94,0.00,OVC,,0.00,WeatherDisplay:10.37,2013-02-26 08:05:00,
2013-02-26 03:11:00,31.5,30.0,30.26,NNW,346,0.0,0.0,94,0.00,OVC,,0.00,WeatherDisplay:10.37,2013-02-26 08:11:00,
2013-02-26 03:16:00,31.7,30.2,30.26,NNW,346,0.0,0.0,94,0.00,OVC,,0.00,WeatherDisplay:10.37,2013-02-26 08:16:00,
2013-02-26 03:21:00,31.6,30.1,30.26,NNW,346,0.0,0.0,94,0.00,OVC,,0.00,WeatherDisplay:10.37,2013-02-26 08:21:00,
2013-02-26 03:26:00,31.5,30.0,30.26,NNW,346,2.3,2.3,94,0.00,OVC,,0.00,WeatherDisplay:10.37,2013-02-26 08:26:00,
2013-02-26 03:31:00,31.5,30.0,30.27,NNW,346,0.0,0.0,94,0.00,OVC,,0.00,WeatherDisplay:10.37,2013-02-26 08:31:00,
2013-02-26 03:37:00,31.5,30.0,30.27,NNW,346,0.0,0.0,94,0.00,OVC,,0.00,WeatherDisplay:10.37,2013-02-26 08:37:00,
2013-02-26 03:42:00,31.5,30.0,30.27,NNW,346,2.3,2.3,94,0.00,OVC,,0.00,WeatherDisplay:10.37,2013-02-26 08:42:00,
2013-02-26 03:47:00,31.6,30.1,30.26,NNW,346,0.0,0.0,94,0.00,OVC,,0.00,WeatherDisplay:10.37,2013-02-26 08:47:00,
2013-02-26 03:52:00,31.6,30.1,30.27,NNW,346,0.0,0.0,94,0.00,OVC,,0.00,WeatherDisplay:10.37,2013-02-26 08:52:00,
2013-02-26 03:57:00,31.8,30.3,30.26,NNW,346,0.0,0.0,94,0.00,OVC,,0.00,WeatherDisplay:10.37,2013-02-26 08:57:00,
2013-02-26 04:03:00,31.9,30.4,30.26,NNW,346,0.0,0.0,94,0.00,OVC,,0.00,WeatherDisplay:10.37,2013-02-26 09:03:00,
2013-02-26 04:08:00,32.1,30.6,30.25,NNW,346,2.3,2.3,94,0.00,OVC,,0.00,WeatherDisplay:10.37,2013-02-26 09:08:00,
2013-02-26 04:13:00,32.1,30.6,30.26,NNW,346,2.3,0.0,94,0.00,OVC,,0.00,WeatherDisplay:10.37,2013-02-26 09:13:00,
2013-02-26 04:18:00,32.1,30.6,30.26,NNW,346,0.0,0.0,94,0.00,OVC,,0.00,WeatherDisplay:10.37,2013-02-26 09:18:00,
2013-02-26 04:23:00,32.0,30.5,30.26,NNW,346,0.0,0.0,94,0.00,OVC,,0.00,WeatherDisplay:10.37,2013-02-26 09:23:00,
2013-02-26 04:29:00,32.2,30.7,30.26,NNW,346,0.0,0.0,94,0.00,OVC,,0.00,WeatherDisplay:10.37,2013-02-26 09:29:00,
2013-02-26 04:34:00,32.0,30.5,30.26,NNW,346,0.0,0.0,94,0.00,OVC,,0.00,WeatherDisplay:10.37,2013-02-26 09:34:00,
2013-02-26 04:39:00,31.8,30.3,30.26,NNW,346,0.0,0.0,94,0.00,OVC,,0.00,WeatherDisplay:10.37,2013-02-26 09:39:00,
2013-02-26 04:44:00,31.8,30.3,30.26,NNW,346,0.0,0.0,94,0.00,OVC,,0.00,WeatherDisplay:10.37,2013-02-26 09:44:00,
2013-02-26 04:49:00,31.9,30.4,30.26,NNW,346,0.0,0.1,94,0.00,OVC,,0.00,WeatherDisplay:10.37,2013-02-26 09:49:00,
2013-02-26 04:55:00,31.9,30.4,30.26,NNW,346,1.1,0.0,94,0.00,OVC,,0.00,WeatherDisplay:10.37,2013-02-26 09:55:00,
2013-02-26 05:00:00,32.0,31.8,30.26,NNW,346,0.0,1.0,99,0.00,OVC,,0.00,WeatherDisplay:10.37,2013-02-26 10:00:00,
2013-02-26 05:05:00,32.3,30.8,30.26,NNW,346,2.3,2.3,94,0.00,OVC,,0.00,WeatherDisplay:10.37,2013-02-26 10:05:00,
2013-02-26 05:10:00,32.3,30.8,30.26,NNW,346,0.0,0.0,94,0.00,OVC,,0.00,WeatherDisplay:10.37,2013-02-26 10:10:00,
2013-02-26 05:15:00,32.0,30.5,30.27,NNW,346,0.0,0.1,94,0.00,OVC,,0.00,WeatherDisplay:10.37,2013-02-26 10:15:00,
2013-02-26 05:20:00,31.9,30.4,30.27,NNW,346,0.0,0.0,94,0.00,OVC,,0.00,WeatherDisplay:10.37,2013-02-26 10:20:00,
2013-02-26 05:26:00,32.0,30.5,30.27,NNW,346,0.0,0.0,94,0.00,OVC,,0.00,WeatherDisplay:10.37,2013-02-26 10:26:00,
2013-02-26 05:31:00,32.4,30.9,30.27,NNW,346,0.0,0.0,94,0.00,OVC,,0.00,WeatherDisplay:10.37,2013-02-26 10:31:00,
2013-02-26 05:36:00,32.3,30.8,30.27,NNW,346,1.0,1.0,94,0.00,OVC,,0.00,WeatherDisplay:10.37,2013-02-26 10:36:00,
2013-02-26 05:41:00,32.1,30.6,30.27,NNW,346,0.0,0.0,94,0.00,OVC,,0.00,WeatherDisplay:10.37,2013-02-26 10:41:00,
2013-02-26 05:46:00,31.8,30.3,30.27,NNW,346,0.0,0.0,94,0.00,OVC,,0.00,WeatherDisplay:10.37,2013-02-26 10:46:00,
2013-02-26 05:52:00,31.7,29.9,30.27,NNW,346,0.0,0.0,93,0.00,OVC,,0.00,WeatherDisplay:10.37,2013-02-26 10:52:00,
2013-02-26 05:57:00,32.0,32.0,30.27,NNW,346,0.0,0.0,100,0.00,OVC,,0.00,WeatherDisplay:10.37,2013-02-26 10:57:00,
2013-02-26 06:02:00,32.2,30.7,30.26,NNW,346,0.0,0.0,94,0.00,OVC,,0.00,WeatherDisplay:10.37,2013-02-26 11:02:00,
2013-02-26 06:07:00,32.0,30.5,30.27,NNW,346,0.0,0.0,94,0.00,OVC,,0.00,WeatherDisplay:10.37,2013-02-26 11:07:00,
2013-02-26 06:12:00,32.0,30.5,30.27,NNW,346,0.0,0.1,94,0.00,OVC,,0.00,WeatherDisplay:10.37,2013-02-26 11:12:00,
2013-02-26 06:17:00,31.6,29.8,30.27,NNW,346,2.3,2.3,93,0.00,OVC,,0.00,WeatherDisplay:10.37,2013-02-26 11:17:00,
2013-02-26 06:23:00,31.1,29.3,30.27,NNW,346,3.5,3.5,93,0.00,OVC,,0.00,WeatherDisplay:10.37,2013-02-26 11:23:00,
2013-02-26 06:28:00,31.0,29.5,30.27,NNW,346,3.5,3.5,94,0.00,OVC,,0.00,WeatherDisplay:10.37,2013-02-26 11:28:00,
2013-02-26 06:33:00,31.1,29.6,30.28,NNW,346,0.0,0.0,94,0.00,OVC,,0.00,WeatherDisplay:10.37,2013-02-26 11:33:00,
2013-02-26 06:38:00,31.4,29.9,30.27,NNW,346,3.5,3.5,94,0.00,OVC,,0.00,WeatherDisplay:10.37,2013-02-26 11:38:00,
2013-02-26 06:43:00,31.5,30.0,30.27,NNW,346,0.0,0.0,94,0.00,OVC,,0.00,WeatherDisplay:10.37,2013-02-26 11:43:00,
2013-02-26 06:49:00,31.6,30.1,30.28,NNW,346,0.0,0.0,94,0.00,OVC,,0.00,WeatherDisplay:10.37,2013-02-26 11:49:00,
2013-02-26 06:54:00,31.3,29.8,30.28,NNW,346,1.1,0.0,94,0.00,OVC,,0.00,WeatherDisplay:10.37,2013-02-26 11:54:00,
2013-02-26 06:59:00,31.3,29.8,30.27,NNW,346,1.1,1.1,94,0.00,OVC,,0.00,WeatherDisplay:10.37,2013-02-26 11:59:00,
2013-02-26 07:04:00,31.5,30.0,30.28,NNW,346,0.0,0.0,94,0.00,OVC,,0.00,WeatherDisplay:10.37,2013-02-26 12:04:00,
2013-02-26 07:09:00,31.6,30.1,30.28,NNW,346,0.0,0.0,94,0.00,OVC,,0.00,WeatherDisplay:10.37,2013-02-26 12:09:00,
2013-02-26 07:14:00,31.7,30.2,30.28,NNW,346,1.1,1.1,94,0.00,OVC,,0.00,WeatherDisplay:10.37,2013-02-26 12:14:00,
2013-02-26 07:20:00,31.5,30.0,30.28,NNW,346,2.3,2.3,94,0.00,OVC,,0.00,WeatherDisplay:10.37,2013-02-26 12:20:00,
2013-02-26 07:25:00,31.5,30.0,30.28,NNW,346,2.3,2.3,94,0.00,OVC,,0.00,WeatherDisplay:10.37,2013-02-26 12:25:00,
2013-02-26 07:30:00,31.7,30.1,30.28,NNW,346,2.0,2.0,94,0.00,OVC,,0.00,WeatherDisplay:10.37,2013-02-26 12:30:00,
2013-02-26 07:35:00,31.9,30.4,30.28,NNW,346,0.0,0.0,94,0.00,OVC,,0.00,WeatherDisplay:10.37,2013-02-26 12:35:00,
2013-02-26 07:40:00,32.0,30.5,30.28,NNW,346,0.0,0.0,94,0.00,OVC,,0.00,WeatherDisplay:10.37,2013-02-26 12:40:00,
2013-02-26 07:45:00,32.3,30.8,30.28,NNW,346,0.0,0.0,94,0.00,OVC,,0.00,WeatherDisplay:10.37,2013-02-26 12:45:00,
2013-02-26 07:51:00,32.6,31.1,30.28,NNW,346,2.3,2.3,94,0.00,OVC,,0.00,WeatherDisplay:10.37,2013-02-26 12:51:00,
2013-02-26 07:56:00,32.9,31.4,30.28,NNW,346,1.1,0.0,94,0.00,OVC,,0.00,WeatherDisplay:10.37,2013-02-26 12:56:00,
2013-02-26 08:01:00,33.2,31.7,30.29,NNW,346,0.0,0.0,94,0.00,OVC,,0.00,WeatherDisplay:10.37,2013-02-26 13:01:00,
2013-02-26 08:06:00,33.5,32.0,30.29,NNW,346,0.0,0.0,94,0.00,OVC,,0.00,WeatherDisplay:10.37,2013-02-26 13:06:00,
2013-02-26 08:11:00,33.8,32.3,30.29,NNW,346,0.0,0.0,94,0.00,OVC,,0.00,WeatherDisplay:10.37,2013-02-26 13:11:00,
2013-02-26 08:16:00,34.1,32.3,30.30,NNW,346,0.0,0.0,93,0.00,OVC,,0.00,WeatherDisplay:10.37,2013-02-26 13:16:00,
2013-02-26 08:22:00,34.3,32.5,30.30,NNW,346,0.0,0.0,93,0.00,OVC,,0.00,WeatherDisplay:10.37,2013-02-26 13:22:00,
2013-02-26 08:27:00,34.6,32.5,30.30,NNW,346,0.0,0.0,92,0.00,OVC,,0.00,WeatherDisplay:10.37,2013-02-26 13:27:00,
2013-02-26 08:32:00,34.8,32.7,30.30,NNW,346,0.0,0.0,92,0.00,OVC,,0.00,WeatherDisplay:10.37,2013-02-26 13:32:00,
2013-02-26 08:37:00,35.0,32.9,30.30,NNW,346,0.0,0.0,92,0.00,OVC,,0.00,WeatherDisplay:10.37,2013-02-26 13:37:00,
2013-02-26 08:42:00,35.0,32.6,30.30,NNW,346,1.1,0.0,91,0.00,OVC,,0.00,WeatherDisplay:10.37,2013-02-26 13:42:00,
2013-02-26 08:48:00,35.1,32.7,30.30,NNW,346,0.0,0.0,91,0.00,OVC,,0.00,WeatherDisplay:10.37,2013-02-26 13:48:00,
2013-02-26 08:53:00,35.2,32.8,30.30,NNW,346,1.1,0.0,91,0.00,OVC,,0.00,WeatherDisplay:10.37,2013-02-26 13:53:00,
2013-02-26 08:58:00,35.3,32.7,30.29,NNW,346,0.0,0.0,90,0.00,OVC,,0.00,WeatherDisplay:10.37,2013-02-26 13:58:00,
2013-02-26 09:03:00,35.5,32.9,30.29,NNW,346,0.0,0.0,90,0.00,FEW,,0.00,WeatherDisplay:10.37,2013-02-26 14:03:00,
2013-02-26 09:09:00,35.6,33.0,30.29,NNW,346,0.0,0.0,90,0.00,FEW,,0.00,WeatherDisplay:10.37,2013-02-26 14:09:00,
2013-02-26 09:14:00,35.8,32.9,30.30,NNW,346,1.1,1.1,89,0.00,FEW,,0.00,WeatherDisplay:10.37,2013-02-26 14:14:00,
2013-02-26 09:19:00,36.0,33.1,30.30,NNW,346,1.1,0.0,89,0.00,FEW,,0.00,WeatherDisplay:10.37,2013-02-26 14:19:00,
2013-02-26 09:24:00,36.3,33.1,30.30,NNW,346,0.0,0.0,88,0.00,FEW,,0.00,WeatherDisplay:10.37,2013-02-26 14:24:00,
2013-02-26 09:29:00,36.6,33.1,30.30,NNW,346,1.1,1.1,87,0.00,FEW,,0.00,WeatherDisplay:10.37,2013-02-26 14:29:00,
2013-02-26 09:35:00,36.9,33.4,30.31,NNW,346,1.1,1.1,87,0.00,FEW,,0.00,WeatherDisplay:10.37,2013-02-26 14:35:00,
2013-02-26 09:40:00,37.4,33.6,30.31,NNW,346,1.1,0.0,86,0.00,FEW,,0.00,WeatherDisplay:10.37,2013-02-26 14:40:00,
2013-02-26 09:45:00,37.8,33.7,30.31,NNW,346,0.0,0.0,85,0.00,FEW,,0.00,WeatherDisplay:10.37,2013-02-26 14:45:00,
2013-02-26 09:50:00,38.4,34.0,30.31,NNW,346,0.0,0.0,84,0.00,FEW,,0.00,WeatherDisplay:10.37,2013-02-26 14:50:00,
2013-02-26 09:55:00,38.9,33.6,30.31,NNW,346,0.0,0.0,81,0.00,FEW,,0.00,WeatherDisplay:10.37,2013-02-26 14:55:00,
2013-02-26 10:00:00,39.4,33.7,30.31,NNW,346,0.0,0.0,80,0.00,FEW,,0.00,WeatherDisplay:10.37,2013-02-26 15:00:00,
2013-02-26 10:05:00,39.6,33.6,30.31,NNW,346,0.0,0.0,79,0.00,FEW,,0.00,WeatherDisplay:10.37,2013-02-26 15:05:00,
2013-02-26 10:10:00,39.6,33.0,30.31,NNW,346,0.0,0.0,77,0.00,FEW,,0.00,WeatherDisplay:10.37,2013-02-26 15:10:00,
2013-02-26 10:16:00,40.0,33.4,30.30,NNW,346,0.0,0.0,77,0.00,FEW,,0.00,WeatherDisplay:10.37,2013-02-26 15:16:00,
2013-02-26 10:21:00,40.5,33.5,30.30,NNW,346,0.0,0.0,76,0.00,FEW,,0.00,WeatherDisplay:10.37,2013-02-26 15:21:00,
2013-02-26 10:26:00,40.6,33.6,30.30,NNW,346,0.0,0.0,76,0.00,FEW,,0.00,WeatherDisplay:10.37,2013-02-26 15:26:00,
2013-02-26 10:31:00,40.4,33.1,30.30,NNW,346,0.0,0.0,75,0.00,FEW,,0.00,WeatherDisplay:10.37,2013-02-26 15:31:00,
2013-02-26 10:37:00,40.1,32.8,30.30,NNW,346,3.5,3.5,75,0.00,FEW,,0.00,WeatherDisplay:10.37,2013-02-26 15:37:00,
2013-02-26 10:42:00,40.1,32.8,30.29,NNW,346,0.0,0.0,75,0.00,FEW,,0.00,WeatherDisplay:10.37,2013-02-26 15:42:00,
2013-02-26 10:47:00,40.2,32.9,30.30,SE,143,8.1,8.1,75,0.00,FEW,,0.00,WeatherDisplay:10.37,2013-02-26 15:47:00,
2013-02-26 10:52:00,39.9,33.9,30.30,South,177,7.0,7.0,79,0.00,FEW,,0.00,WeatherDisplay:10.37,2013-02-26 15:52:00,
2013-02-26 10:57:00,39.8,34.1,30.30,SSE,163,8.1,8.1,80,0.00,FEW,,0.00,WeatherDisplay:10.37,2013-02-26 15:57:00,
2013-02-26 11:03:00,40.0,34.0,30.30,South,178,6.9,6.9,79,0.00,OVC,,0.00,WeatherDisplay:10.37,2013-02-26 16:03:00,
2013-02-26 11:08:00,40.2,34.2,30.30,South,181,8.1,8.1,79,0.00,OVC,,0.00,WeatherDisplay:10.37,2013-02-26 16:08:00,
2013-02-26 11:13:00,40.3,34.3,30.30,SSE,148,11.5,11.5,79,0.00,OVC,,0.00,WeatherDisplay:10.37,2013-02-26 16:13:00,
2013-02-26 11:18:00,40.4,34.1,30.31,SE,146,8.1,8.1,78,0.00,OVC,,0.00,WeatherDisplay:10.37,2013-02-26 16:18:00,
2013-02-26 11:23:00,40.5,33.9,30.31,SE,135,8.1,8.1,77,0.00,OVC,,0.00,WeatherDisplay:10.37,2013-02-26 16:23:00,
2013-02-26 11:29:00,40.5,33.2,30.30,ESE,107,8.1,8.1,75,0.00,OVC,,0.00,WeatherDisplay:10.37,2013-02-26 16:29:00,
2013-02-26 11:34:00,40.2,33.2,30.30,ESE,107,9.2,9.2,76,0.00,OVC,,0.00,WeatherDisplay:10.37,2013-02-26 16:34:00,
2013-02-26 11:39:00,40.1,32.8,30.30,ESE,103,11.5,11.5,75,0.00,OVC,,0.00,WeatherDisplay:10.37,2013-02-26 16:39:00,
2013-02-26 11:44:00,40.2,33.2,30.30,ESE,109,9.2,9.2,76,0.00,OVC,,0.00,WeatherDisplay:10.37,2013-02-26 16:44:00,
2013-02-26 11:50:00,40.3,33.3,30.30,ESE,108,11.5,11.5,76,0.00,OVC,,0.00,WeatherDisplay:10.37,2013-02-26 16:50:00,
2013-02-26 11:55:00,40.4,33.4,30.30,East,90,8.0,8.0,76,0.00,OVC,,0.00,WeatherDisplay:10.37,2013-02-26 16:55:00,
2013-02-26 12:00:00,40.2,34.2,30.30,ESE,113,12.0,12.0,79,0.00,OVC,,0.00,WeatherDisplay:10.37,2013-02-26 17:00:00,
2013-02-26 12:05:00,40.0,34.3,30.30,ESE,109,15.0,15.0,80,0.00,OVC,,0.00,WeatherDisplay:10.37,2013-02-26 17:05:00,
2013-02-26 12:10:00,40.0,34.6,30.30,East,97,12.0,12.0,81,0.00,OVC,,0.00,WeatherDisplay:10.37,2013-02-26 17:10:00,
2013-02-26 12:16:00,40.0,34.3,30.30,East,96,11.5,11.5,80,0.00,OVC,,0.00,WeatherDisplay:10.37,2013-02-26 17:16:00,
2013-02-26 12:21:00,40.0,34.6,30.29,East,94,11.5,11.5,81,0.00,OVC,,0.00,WeatherDisplay:10.37,2013-02-26 17:21:00,
2013-02-26 12:26:00,40.1,34.7,30.29,ESE,107,11.5,11.5,81,0.00,OVC,,0.00,WeatherDisplay:10.37,2013-02-26 17:26:00,
2013-02-26 12:31:00,39.9,34.5,30.29,ESE,109,13.8,13.8,81,0.00,OVC,,0.00,WeatherDisplay:10.37,2013-02-26 17:31:00,
2013-02-26 12:36:00,39.8,34.8,30.29,ESE,112,13.8,13.8,82,0.00,OVC,,0.00,WeatherDisplay:10.37,2013-02-26 17:36:00,
2013-02-26 12:41:00,39.8,34.8,30.29,ESE,119,11.5,11.5,82,0.00,OVC,,0.00,WeatherDisplay:10.37,2013-02-26 17:41:00,
2013-02-26 12:47:00,39.8,34.8,30.29,ESE,109,13.0,13.0,82,0.00,OVC,,0.00,WeatherDisplay:10.37,2013-02-26 17:47:00,
2013-02-26 12:52:00,39.7,34.7,30.29,ESE,113,12.0,12.0,82,0.00,OVC,,0.00,WeatherDisplay:10.37,2013-02-26 17:52:00,
2013-02-26 12:57:00,39.8,34.4,30.29,ESE,111,12.7,12.7,81,0.00,OVC,,0.00,WeatherDisplay:10.37,2013-02-26 17:57:00,
2013-02-26 13:02:00,39.9,34.5,30.29,ESE,107,13.8,13.8,81,0.00,OVC,,0.00,WeatherDisplay:10.37,2013-02-26 18:02:00,
2013-02-26 13:07:00,39.9,34.5,30.28,ESE,113,13.8,13.8,81,0.00,OVC,,0.00,WeatherDisplay:10.37,2013-02-26 18:07:00,
2013-02-26 13:12:00,39.7,34.3,30.28,ESE,118,15.0,15.0,81,0.00,OVC,,0.00,WeatherDisplay:10.37,2013-02-26 18:12:00,
2013-02-26 13:18:00,39.5,34.5,30.27,ESE,107,12.7,12.7,82,0.00,OVC,,0.00,WeatherDisplay:10.37,2013-02-26 18:18:00,
2013-02-26 13:23:00,39.5,34.2,30.27,East,101,13.8,13.8,81,0.00,OVC,,0.00,WeatherDisplay:10.37,2013-02-26 18:23:00,
2013-02-26 13:28:00,39.3,34.3,30.27,ESE,107,11.0,11.0,82,0.00,OVC,,0.00,WeatherDisplay:10.37,2013-02-26 18:28:00,
2013-02-26 13:33:00,39.4,34.4,30.27,East,100,13.0,13.0,82,0.00,OVC,,0.00,WeatherDisplay:10.37,2013-02-26 18:33:00,
2013-02-26 13:38:00,39.5,33.8,30.26,ESE,105,9.2,9.2,80,0.00,OVC,,0.00,WeatherDisplay:10.37,2013-02-26 18:38:00,
2013-02-26 13:44:00,39.4,34.4,30.26,East,92,12.7,12.7,82,0.00,OVC,,0.00,WeatherDisplay:10.37,2013-02-26 18:44:00,
2013-02-26 13:49:00,39.4,34.1,30.26,ESE,113,12.7,12.7,81,0.00,OVC,,0.00,WeatherDisplay:10.37,2013-02-26 18:49:00,
2013-02-26 13:54:00,39.4,34.4,30.26,ESE,107,14.0,14.0,82,0.00,OVC,,0.00,WeatherDisplay:10.37,2013-02-26 18:54:00,
2013-02-26 13:59:00,39.4,34.4,30.26,ESE,107,11.5,11.5,82,0.00,OVC,,0.00,WeatherDisplay:10.37,2013-02-26 18:59:00,
2013-02-26 14:04:00,39.4,34.4,30.26,ESE,111,13.0,13.0,82,0.00,BKN,,0.00,WeatherDisplay:10.37,2013-02-26 19:04:00,
2013-02-26 14:09:00,39.3,34.3,30.25,ESE,105,11.5,11.5,82,0.00,BKN,,0.00,WeatherDisplay:10.37,2013-02-26 19:09:00,
2013-02-26 14:15:00,39.3,34.3,30.25,ESE,111,11.5,11.5,82,0.00,BKN,,0.00,WeatherDisplay:10.37,2013-02-26 19:15:00,
2013-02-26 14:20:00,39.3,34.6,30.25,ESE,103,12.0,12.0,83,0.00,BKN,,0.00,WeatherDisplay:10.37,2013-02-26 19:20:00,
2013-02-26 14:25:00,39.4,34.7,30.25,ESE,110,11.5,11.5,83,0.00,BKN,,0.00,WeatherDisplay:10.37,2013-02-26 19:25:00,
2013-02-26 14:30:00,39.3,34.6,30.25,East,97,9.2,9.2,83,0.00,BKN,,0.00,WeatherDisplay:10.37,2013-02-26 19:30:00,
2013-02-26 14:35:00,39.6,34.6,30.25,East,99,12.0,12.0,82,0.00,BKN,,0.00,WeatherDisplay:10.37,2013-02-26 19:35:00,
2013-02-26 14:41:00,39.7,34.3,30.24,East,92,12.7,12.7,81,0.00,BKN,,0.00,WeatherDisplay:10.37,2013-02-26 19:41:00,
2013-02-26 14:46:00,39.5,34.5,30.25,ESE,111,13.0,13.0,82,0.00,BKN,,0.00,WeatherDisplay:10.37,2013-02-26 19:46:00,
2013-02-26 14:51:00,39.3,34.3,30.24,ESE,106,12.7,12.7,82,0.00,BKN,,0.00,WeatherDisplay:10.37,2013-02-26 19:51:00,
2013-02-26 14:56:00,39.3,34.6,30.25,East,96,12.7,12.7,83,0.00,BKN,,0.00,WeatherDisplay:10.37,2013-02-26 19:56:00,
2013-02-26 15:02:00,39.3,34.6,30.25,ESE,103,9.0,9.0,83,0.00,OVC,,0.00,WeatherDisplay:10.37,2013-02-26 20:02:00,
2013-02-26 15:07:00,39.3,34.3,30.25,East,93,14.0,14.0,82,0.00,OVC,,0.00,WeatherDisplay:10.37,2013-02-26 20:07:00,
2013-02-26 15:12:00,39.5,34.2,30.26,East,100,11.5,11.5,81,0.00,OVC,,0.00,WeatherDisplay:10.37,2013-02-26 20:12:00,
2013-02-26 15:18:00,39.5,34.2,30.26,East,100,12.0,12.0,81,0.00,OVC,,0.00,WeatherDisplay:10.37,2013-02-26 20:18:00,
2013-02-26 15:23:00,39.5,34.2,30.26,ESE,120,12.7,12.7,81,0.00,OVC,,0.00,WeatherDisplay:10.37,2013-02-26 20:23:00,
2013-02-26 15:28:00,39.6,33.9,30.26,East,98,11.0,11.0,80,0.00,OVC,,0.00,WeatherDisplay:10.37,2013-02-26 20:28:00,
2013-02-26 15:33:00,39.6,33.9,30.25,SE,132,11.5,11.5,80,0.00,OVC,,0.00,WeatherDisplay:10.37,2013-02-26 20:33:00,
2013-02-26 15:38:00,39.6,33.6,30.25,SE,128,12.0,12.0,79,0.00,OVC,,0.00,WeatherDisplay:10.37,2013-02-26 20:38:00,
2013-02-26 15:43:00,39.5,33.5,30.25,ESE,107,11.5,11.5,79,0.00,OVC,,0.00,WeatherDisplay:10.37,2013-02-26 20:43:00,
2013-02-26 15:48:00,39.4,33.4,30.25,ESE,115,12.0,12.0,79,0.00,OVC,,0.00,WeatherDisplay:10.37,2013-02-26 20:48:00,
2013-02-26 15:53:00,39.2,32.6,30.25,ESE,105,13.8,13.8,77,0.00,OVC,,0.00,WeatherDisplay:10.37,2013-02-26 20:53:00,
2013-02-26 15:59:00,39.1,31.8,30.25,ESE,105,13.8,13.8,75,0.00,OVC,,0.00,WeatherDisplay:10.37,2013-02-26 20:59:00,
2013-02-26 16:04:00,39.0,31.7,30.24,East,97,16.1,16.1,75,0.00,OVC,,0.00,WeatherDisplay:10.37,2013-02-26 21:04:00,
2013-02-26 16:09:00,38.9,32.0,30.24,East,93,16.0,16.0,76,0.00,OVC,,0.00,WeatherDisplay:10.37,2013-02-26 21:09:00,
2013-02-26 16:14:00,38.9,31.6,30.23,East,91,14.0,14.0,75,0.00,OVC,,0.00,WeatherDisplay:10.37,2013-02-26 21:14:00,
2013-02-26 16:20:00,38.9,32.0,30.23,East,98,14.0,14.0,76,0.00,OVC,,0.00,WeatherDisplay:10.37,2013-02-26 21:20:00,
2013-02-26 16:25:00,38.8,32.2,30.23,East,90,11.5,11.5,77,0.00,OVC,,0.00,WeatherDisplay:10.37,2013-02-26 21:25:00,
2013-02-26 16:30:00,38.7,32.4,30.23,East,82,11.5,11.5,78,0.00,OVC,,0.00,WeatherDisplay:10.37,2013-02-26 21:30:00,
2013-02-26 16:35:00,38.7,32.1,30.22,East,92,9.0,9.0,77,0.00,OVC,,0.00,WeatherDisplay:10.37,2013-02-26 21:35:00,
2013-02-26 16:40:00,38.6,31.4,30.22,East,80,11.5,11.5,75,0.00,OVC,,0.00,WeatherDisplay:10.37,2013-02-26 21:40:00,
2013-02-26 16:45:00,38.8,31.6,30.22,East,90,11.5,11.5,75,0.00,OVC,,0.00,WeatherDisplay:10.37,2013-02-26 21:45:00,
2013-02-26 16:51:00,38.7,31.8,30.22,East,89,11.5,11.5,76,0.00,OVC,,0.00,WeatherDisplay:10.37,2013-02-26 21:51:00,
2013-02-26 16:56:00,38.7,32.1,30.22,East,80,8.1,8.1,77,0.00,OVC,,0.00,WeatherDisplay:10.37,2013-02-26 21:56:00,
2013-02-26 17:01:00,38.6,32.0,30.21,ENE,75,8.1,8.1,77,0.00,OVC,,0.00,WeatherDisplay:10.37,2013-02-26 22:01:00,
2013-02-26 17:06:00,38.5,32.2,30.21,ENE,75,11.5,11.5,78,0.00,OVC,,0.00,WeatherDisplay:10.37,2013-02-26 22:06:00,
2013-02-26 17:12:00,38.4,31.2,30.21,East,80,13.8,13.8,75,0.00,OVC,,0.00,WeatherDisplay:10.37,2013-02-26 22:12:00,
2013-02-26 17:17:00,38.5,31.3,30.22,East,86,6.9,6.9,75,0.00,OVC,,0.00,WeatherDisplay:10.37,2013-02-26 22:17:00,
2013-02-26 17:22:00,38.4,31.8,30.22,East,85,10.4,10.4,77,0.00,OVC,,0.00,WeatherDisplay:10.37,2013-02-26 22:22:00,
2013-02-26 17:27:00,38.3,31.7,30.22,East,83,10.4,10.4,77,0.00,OVC,,0.00,WeatherDisplay:10.37,2013-02-26 22:27:00,
2013-02-26 17:33:00,38.3,31.4,30.21,East,84,11.5,11.5,76,0.00,OVC,,0.00,WeatherDisplay:10.37,2013-02-26 22:33:00,
2013-02-26 17:38:00,38.3,31.7,30.21,ENE,76,8.1,8.1,77,0.00,OVC,,0.00,WeatherDisplay:10.37,2013-02-26 22:38:00,
2013-02-26 17:43:00,38.2,31.3,30.21,ENE,78,7.0,7.0,76,0.00,OVC,,0.00,WeatherDisplay:10.37,2013-02-26 22:43:00,
2013-02-26 17:48:00,38.2,31.6,30.21,East,87,10.4,10.4,77,0.00,OVC,,0.00,WeatherDisplay:10.37,2013-02-26 22:48:00,
2013-02-26 17:53:00,38.2,31.6,30.22,East,82,6.9,6.9,77,0.00,OVC,,0.00,WeatherDisplay:10.37,2013-02-26 22:53:00,
2013-02-26 17:58:00,38.1,31.5,30.21,East,80,10.4,10.4,77,0.00,OVC,,0.00,WeatherDisplay:10.37,2013-02-26 22:58:00,
2013-02-26 18:04:00,38.1,31.5,30.21,East,82,10.4,10.4,77,0.00,BKN,,0.00,WeatherDisplay:10.37,2013-02-26 23:04:00,
2013-02-26 18:09:00,38.1,31.5,30.20,East,79,6.9,6.9,77,0.00,BKN,,0.00,WeatherDisplay:10.37,2013-02-26 23:09:00,
2013-02-26 18:14:00,38.0,31.4,30.20,ENE,76,8.1,8.1,77,0.00,BKN,,0.00,WeatherDisplay:10.37,2013-02-26 23:14:00,
2013-02-26 18:19:00,37.9,31.3,30.20,ENE,65,7.0,7.0,77,0.00,BKN,,0.00,WeatherDisplay:10.37,2013-02-26 23:19:00,
2013-02-26 18:25:00,37.8,31.2,30.20,ENE,63,8.1,8.1,77,0.00,BKN,,0.00,WeatherDisplay:10.37,2013-02-26 23:25:00,
2013-02-26 18:30:00,37.8,31.2,30.19,ENE,67,7.0,8.0,77,0.00,BKN,,0.00,WeatherDisplay:10.37,2013-02-26 23:30:00,
2013-02-26 18:35:00,37.8,31.2,30.19,ENE,65,10.4,10.4,77,0.00,BKN,,0.00,WeatherDisplay:10.37,2013-02-26 23:35:00,
2013-02-26 18:40:00,37.8,31.2,30.19,ENE,63,6.0,6.0,77,0.00,BKN,,0.00,WeatherDisplay:10.37,2013-02-26 23:40:00,
2013-02-26 18:45:00,37.8,30.9,30.20,East,84,8.1,8.1,76,0.00,BKN,,0.00,WeatherDisplay:10.37,2013-02-26 23:45:00,
2013-02-26 18:50:00,37.8,30.9,30.20,ENE,61,6.0,6.0,76,0.00,BKN,,0.00,WeatherDisplay:10.37,2013-02-26 23:50:00,
2013-02-26 18:56:00,37.9,31.0,30.19,ENE,69,6.9,6.9,76,0.00,BKN,,0.00,WeatherDisplay:10.37,2013-02-26 23:56:00,
2013-02-26 19:01:00,37.8,30.9,30.19,ENE,63,6.9,6.9,76,0.00,OVC,,0.00,WeatherDisplay:10.37,2013-02-27 00:01:00,
2013-02-26 19:06:00,37.8,30.9,30.19,ENE,57,7.0,7.0,76,0.00,OVC,,0.00,WeatherDisplay:10.37,2013-02-27 00:06:00,
2013-02-26 19:11:00,37.8,30.9,30.19,ENE,63,5.8,5.8,76,0.00,OVC,,0.00,WeatherDisplay:10.37,2013-02-27 00:11:00,
2013-02-26 19:17:00,37.7,30.8,30.18,NE,51,8.1,8.1,76,0.00,OVC,,0.00,WeatherDisplay:10.37,2013-02-27 00:17:00,
2013-02-26 19:22:00,37.6,30.7,30.18,NE,49,7.0,7.0,76,0.00,OVC,,0.00,WeatherDisplay:10.37,2013-02-27 00:22:00,
2013-02-26 19:27:00,37.6,31.0,30.17,NE,51,8.1,8.1,77,0.00,OVC,,0.00,WeatherDisplay:10.37,2013-02-27 00:27:00,
2013-02-26 19:32:00,37.5,30.9,30.18,ENE,58,6.9,6.9,77,0.00,OVC,,0.00,WeatherDisplay:10.37,2013-02-27 00:32:00,
2013-02-26 19:37:00,37.5,30.9,30.17,NE,54,7.0,7.0,77,0.00,OVC,,0.00,WeatherDisplay:10.37,2013-02-27 00:37:00,
2013-02-26 19:43:00,37.5,30.9,30.17,ENE,57,12.7,12.7,77,0.00,OVC,,0.00,WeatherDisplay:10.37,2013-02-27 00:43:00,
2013-02-26 19:48:00,37.6,31.0,30.17,ENE,72,7.0,7.0,77,0.00,OVC,,0.00,WeatherDisplay:10.37,2013-02-27 00:48:00,
2013-02-26 19:53:00,37.6,31.0,30.17,NE,51,6.0,6.0,77,0.00,OVC,,0.00,WeatherDisplay:10.37,2013-02-27 00:53:00,
2013-02-26 19:58:00,37.6,31.0,30.17,ENE,60,5.8,5.8,77,0.00,OVC,,0.00,WeatherDisplay:10.37,2013-02-27 00:58:00,
2013-02-26 20:03:00,37.6,31.4,30.17,ENE,57,5.8,5.8,78,0.00,OVC,,0.00,WeatherDisplay:10.37,2013-02-27 01:03:00,
2013-02-26 20:08:00,37.7,31.5,30.17,ENE,63,8.1,8.1,78,0.00,OVC,,0.00,WeatherDisplay:10.37,2013-02-27 01:08:00,
2013-02-26 20:14:00,37.7,31.5,30.17,ENE,77,11.5,11.5,78,0.00,OVC,,0.00,WeatherDisplay:10.37,2013-02-27 01:14:00,
2013-02-26 20:19:00,37.8,31.6,30.16,ENE,59,11.5,11.5,78,0.00,OVC,,0.00,WeatherDisplay:10.37,2013-02-27 01:19:00,
2013-02-26 20:24:00,37.8,31.6,30.16,ENE,66,7.0,7.0,78,0.00,OVC,,0.00,WeatherDisplay:10.37,2013-02-27 01:24:00,
2013-02-26 20:29:00,37.9,31.7,30.16,ENE,59,8.1,8.1,78,0.00,OVC,,0.00,WeatherDisplay:10.37,2013-02-27 01:29:00,
2013-02-26 20:34:00,37.9,31.7,30.16,NE,53,7.0,7.0,78,0.00,OVC,,0.00,WeatherDisplay:10.37,2013-02-27 01:34:00,
2013-02-26 20:39:00,37.9,32.0,30.17,ENE,64,10.4,10.4,79,0.00,OVC,,0.00,WeatherDisplay:10.37,2013-02-27 01:39:00,
2013-02-26 20:45:00,37.9,32.0,30.17,NE,55,7.0,7.0,79,0.00,OVC,,0.00,WeatherDisplay:10.37,2013-02-27 01:45:00,
2013-02-26 20:50:00,37.9,32.3,30.16,ENE,69,11.5,11.5,80,0.00,OVC,,0.00,WeatherDisplay:10.37,2013-02-27 01:50:00,
2013-02-26 20:55:00,37.9,32.0,30.16,NE,55,8.1,8.1,79,0.00,OVC,,0.00,WeatherDisplay:10.37,2013-02-27 01:55:00,
2013-02-26 21:00:00,37.9,32.0,30.16,ENE,63,12.7,12.7,79,0.00,-RA,,0.00,WeatherDisplay:10.37,2013-02-27 02:00:00,
2013-02-26 21:06:00,38.0,32.4,30.15,ENE,63,12.0,12.0,80,0.00,-RA,,0.00,WeatherDisplay:10.37,2013-02-27 02:06:00,
2013-02-26 21:11:00,37.9,32.3,30.14,ENE,59,15.0,15.0,80,0.00,-RA,,0.00,WeatherDisplay:10.37,2013-02-27 02:11:00,
2013-02-26 21:17:00,37.9,32.3,30.14,ENE,69,8.1,8.1,80,0.00,-RA,,0.00,WeatherDisplay:10.37,2013-02-27 02:17:00,
2013-02-26 21:23:00,37.8,32.2,30.14,East,80,11.5,11.5,80,0.00,-RA,,0.00,WeatherDisplay:10.37,2013-02-27 02:23:00,
2013-02-26 21:28:00,37.8,32.5,30.13,NE,54,11.0,11.0,81,0.00,-RA,,0.00,WeatherDisplay:10.37,2013-02-27 02:28:00,
2013-02-26 21:33:00,37.8,32.5,30.13,NE,55,11.5,11.5,81,0.00,-RA,,0.00,WeatherDisplay:10.37,2013-02-27 02:33:00,
2013-02-26 21:38:00,37.6,32.3,30.12,ENE,63,12.7,12.7,81,0.00,-RA,,0.00,WeatherDisplay:10.37,2013-02-27 02:38:00,
2013-02-26 21:44:00,37.5,32.5,30.12,NE,53,15.0,15.0,82,0.00,-RA,,0.00,WeatherDisplay:10.37,2013-02-27 02:44:00,
2013-02-26 21:49:00,37.5,32.5,30.12,NE,56,17.3,17.3,82,0.00,-RA,,0.00,WeatherDisplay:10.37,2013-02-27 02:49:00,
2013-02-26 21:54:00,37.4,32.7,30.12,ENE,57,12.7,12.7,83,0.00,-RA,,0.00,WeatherDisplay:10.37,2013-02-27 02:54:00,
2013-02-26 21:59:00,37.3,32.6,30.12,NE,56,10.4,10.4,83,0.00,-RA,,0.00,WeatherDisplay:10.37,2013-02-27 02:59:00,
2013-02-26 22:05:00,37.3,32.6,30.11,ENE,59,12.7,12.7,83,0.00,-RA,,0.00,WeatherDisplay:10.37,2013-02-27 03:05:00,
2013-02-26 22:10:00,37.3,32.9,30.10,ENE,57,11.5,11.5,84,0.00,-RA,,0.00,WeatherDisplay:10.37,2013-02-27 03:10:00,
2013-02-26 22:15:00,37.2,32.8,30.10,ENE,57,11.5,11.5,84,0.00,-RA,,0.00,WeatherDisplay:10.37,2013-02-27 03:15:00,
2013-02-26 22:20:00,37.2,32.8,30.09,ENE,59,11.5,11.5,84,0.00,-RA,,0.00,WeatherDisplay:10.37,2013-02-27 03:20:00,
2013-02-26 22:26:00,37.2,32.8,30.09,NE,51,8.1,8.1,84,0.00,-RA,,0.00,WeatherDisplay:10.37,2013-02-27 03:26:00,
2013-02-26 22:31:00,37.2,32.8,30.09,NE,54,10.4,10.4,84,0.00,-RA,,0.00,WeatherDisplay:10.37,2013-02-27 03:31:00,
2013-02-26 22:36:00,37.3,32.9,30.08,ENE,58,13.8,13.8,84,0.00,-RA,,0.00,WeatherDisplay:10.37,2013-02-27 03:36:00,
2013-02-26 22:42:00,37.3,32.9,30.08,ENE,69,14.0,14.0,84,0.00,-RA,,0.00,WeatherDisplay:10.37,2013-02-27 03:42:00,
2013-02-26 22:47:00,37.3,32.9,30.07,ENE,58,13.8,13.8,84,0.00,-RA,,0.00,WeatherDisplay:10.37,2013-02-27 03:47:00,
2013-02-26 22:52:00,37.2,33.1,30.07,ENE,57,17.0,17.0,85,0.01,-RA,,0.01,WeatherDisplay:10.37,2013-02-27 03:52:00,
2013-02-26 22:57:00,37.1,33.3,30.07,ENE,65,13.8,13.8,86,0.01,-RA,,0.01,WeatherDisplay:10.37,2013-02-27 03:57:00,
2013-02-26 23:02:00,37.0,33.2,30.07,NE,51,11.5,11.5,86,0.01,-RA,,0.01,WeatherDisplay:10.37,2013-02-27 04:02:00,
2013-02-26 23:07:00,37.0,33.5,30.07,ENE,63,11.5,11.5,87,0.01,-RA,,0.01,WeatherDisplay:10.37,2013-02-27 04:07:00,
2013-02-26 23:12:00,36.9,33.4,30.06,ENE,57,11.5,11.5,87,0.01,-RA,,0.01,WeatherDisplay:10.37,2013-02-27 04:12:00,
2013-02-26 23:18:00,36.9,33.7,30.06,ENE,61,15.0,15.0,88,0.01,-RA,,0.01,WeatherDisplay:10.37,2013-02-27 04:18:00,
2013-02-26 23:23:00,36.9,33.7,30.06,ENE,61,12.7,12.7,88,0.02,-RA,,0.02,WeatherDisplay:10.37,2013-02-27 04:23:00,
2013-02-26 23:28:00,36.8,33.6,30.06,NE,48,11.5,11.5,88,0.02,-RA,,0.02,WeatherDisplay:10.37,2013-02-27 04:28:00,
2013-02-26 23:33:00,36.8,33.6,30.05,NE,42,12.7,12.7,88,0.03,-RA,,0.03,WeatherDisplay:10.37,2013-02-27 04:33:00,
2013-02-26 23:38:00,36.8,33.9,30.05,NE,46,13.0,13.0,89,0.04,-RA,,0.04,WeatherDisplay:10.37,2013-02-27 04:38:00,
2013-02-26 23:44:00,36.8,33.9,30.05,NE,50,11.5,11.5,89,0.04,-RA,,0.04,WeatherDisplay:10.37,2013-02-27 04:44:00,
2013-02-26 23:49:00,36.8,33.9,30.04,NE,52,13.8,13.8,89,0.04,-RA,,0.04,WeatherDisplay:10.37,2013-02-27 04:49:00,
2013-02-26 23:54:00,36.8,33.9,30.05,NE,46,11.5,11.5,89,0.04,-RA,,0.05,WeatherDisplay:10.37,2013-02-27 04:54:00,